sensor_id;sensor_type;location;lat;lon;timestamp;temperature;humidity
32296;DHT22;18781;51.550;5.418;2023-07-13T00:01:43;20.10;54.20
32296;DHT22;18781;51.550;5.418;2023-07-13T00:04:11;20.10;54.20
32296;DHT22;18781;51.550;5.418;2023-07-13T00:06:37;20.10;54.30
32296;DHT22;18781;51.550;5.418;2023-07-13T00:09:03;20.00;54.30
32296;DHT22;18781;51.550;5.418;2023-07-13T00:11:28;20.00;54.30
32296;DHT22;18781;51.550;5.418;2023-07-13T00:13:54;20.00;54.50
32296;DHT22;18781;51.550;5.418;2023-07-13T00:16:19;19.90;54.40
32296;DHT22;18781;51.550;5.418;2023-07-13T00:18:46;19.90;54.50
32296;DHT22;18781;51.550;5.418;2023-07-13T00:21:12;19.90;54.60
32296;DHT22;18781;51.550;5.418;2023-07-13T00:23:40;19.80;54.70
32296;DHT22;18781;51.550;5.418;2023-07-13T00:26:08;19.90;55.00
32296;DHT22;18781;51.550;5.418;2023-07-13T00:28:34;19.80;55.00
32296;DHT22;18781;51.550;5.418;2023-07-13T00:31:01;19.80;55.00
32296;DHT22;18781;51.550;5.418;2023-07-13T00:33:28;19.80;55.00
32296;DHT22;18781;51.550;5.418;2023-07-13T00:36:02;19.80;55.30
32296;DHT22;18781;51.550;5.418;2023-07-13T00:38:33;19.70;55.60
32296;DHT22;18781;51.550;5.418;2023-07-13T00:40:59;19.70;55.60
32296;DHT22;18781;51.550;5.418;2023-07-13T00:43:27;19.70;55.40
32296;DHT22;18781;51.550;5.418;2023-07-13T00:48:21;19.70;55.50
32296;DHT22;18781;51.550;5.418;2023-07-13T00:50:51;19.60;55.60
32296;DHT22;18781;51.550;5.418;2023-07-13T00:53:19;19.70;55.70
32296;DHT22;18781;51.550;5.418;2023-07-13T00:55:49;19.60;55.60
32296;DHT22;18781;51.550;5.418;2023-07-13T00:58:15;19.60;55.90
32296;DHT22;18781;51.550;5.418;2023-07-13T01:00:41;19.60;55.80
32296;DHT22;18781;51.550;5.418;2023-07-13T01:03:07;19.60;56.00
32296;DHT22;18781;51.550;5.418;2023-07-13T01:05:35;19.60;56.00
32296;DHT22;18781;51.550;5.418;2023-07-13T01:08:02;19.50;56.20
32296;DHT22;18781;51.550;5.418;2023-07-13T01:10:29;19.50;56.20
32296;DHT22;18781;51.550;5.418;2023-07-13T01:12:57;19.50;56.20
32296;DHT22;18781;51.550;5.418;2023-07-13T01:15:42;19.50;56.30
32296;DHT22;18781;51.550;5.418;2023-07-13T01:18:13;19.50;56.80
32296;DHT22;18781;51.550;5.418;2023-07-13T01:20:40;19.50;56.80
32296;DHT22;18781;51.550;5.418;2023-07-13T01:23:08;19.40;56.60
32296;DHT22;18781;51.550;5.418;2023-07-13T01:25:35;19.50;56.80
32296;DHT22;18781;51.550;5.418;2023-07-13T01:28:02;19.40;56.70
32296;DHT22;18781;51.550;5.418;2023-07-13T01:30:28;19.40;56.80
32296;DHT22;18781;51.550;5.418;2023-07-13T01:32:54;19.40;56.90
32296;DHT22;18781;51.550;5.418;2023-07-13T01:35:20;19.40;56.90
32296;DHT22;18781;51.550;5.418;2023-07-13T01:37:46;19.40;57.00
32296;DHT22;18781;51.550;5.418;2023-07-13T01:40:12;19.40;57.10
32296;DHT22;18781;51.550;5.418;2023-07-13T01:42:37;19.30;57.10
32296;DHT22;18781;51.550;5.418;2023-07-13T01:45:03;19.40;57.20
32296;DHT22;18781;51.550;5.418;2023-07-13T01:47:30;19.30;57.20
32296;DHT22;18781;51.550;5.418;2023-07-13T01:49:56;19.30;57.30
32296;DHT22;18781;51.550;5.418;2023-07-13T01:52:22;19.30;57.50
32296;DHT22;18781;51.550;5.418;2023-07-13T01:54:48;19.30;57.60
32296;DHT22;18781;51.550;5.418;2023-07-13T01:57:13;19.20;57.60
32296;DHT22;18781;51.550;5.418;2023-07-13T01:59:39;19.30;57.70
32296;DHT22;18781;51.550;5.418;2023-07-13T02:02:05;19.20;57.70
32296;DHT22;18781;51.550;5.418;2023-07-13T02:04:30;19.30;57.90
32296;DHT22;18781;51.550;5.418;2023-07-13T02:06:56;19.20;57.80
32296;DHT22;18781;51.550;5.418;2023-07-13T02:09:21;19.20;57.90
32296;DHT22;18781;51.550;5.418;2023-07-13T02:11:47;19.20;58.00
32296;DHT22;18781;51.550;5.418;2023-07-13T02:14:14;19.20;58.10
32296;DHT22;18781;51.550;5.418;2023-07-13T02:16:41;19.20;58.10
32296;DHT22;18781;51.550;5.418;2023-07-13T02:19:07;19.20;58.20
32296;DHT22;18781;51.550;5.418;2023-07-13T02:21:33;19.20;58.20
32296;DHT22;18781;51.550;5.418;2023-07-13T02:23:59;19.10;58.20
32296;DHT22;18781;51.550;5.418;2023-07-13T02:26:25;19.10;58.30
32296;DHT22;18781;51.550;5.418;2023-07-13T02:28:51;19.10;58.40
32296;DHT22;18781;51.550;5.418;2023-07-13T02:31:17;19.10;58.50
32296;DHT22;18781;51.550;5.418;2023-07-13T02:33:43;19.10;58.60
32296;DHT22;18781;51.550;5.418;2023-07-13T02:36:10;19.00;58.60
32296;DHT22;18781;51.550;5.418;2023-07-13T02:38:36;19.00;58.70
32296;DHT22;18781;51.550;5.418;2023-07-13T02:41:03;19.00;58.90
32296;DHT22;18781;51.550;5.418;2023-07-13T02:43:29;19.00;59.00
32296;DHT22;18781;51.550;5.418;2023-07-13T02:45:55;18.90;59.00
32296;DHT22;18781;51.550;5.418;2023-07-13T02:48:21;19.00;59.10
32296;DHT22;18781;51.550;5.418;2023-07-13T02:50:47;18.90;59.10
32296;DHT22;18781;51.550;5.418;2023-07-13T02:53:12;18.90;59.20
32296;DHT22;18781;51.550;5.418;2023-07-13T02:55:38;18.90;59.30
32296;DHT22;18781;51.550;5.418;2023-07-13T02:58:06;18.80;59.30
32296;DHT22;18781;51.550;5.418;2023-07-13T03:00:31;18.90;59.50
32296;DHT22;18781;51.550;5.418;2023-07-13T03:02:57;18.90;59.70
32296;DHT22;18781;51.550;5.418;2023-07-13T03:05:24;18.80;59.50
32296;DHT22;18781;51.550;5.418;2023-07-13T03:07:49;18.80;59.60
32296;DHT22;18781;51.550;5.418;2023-07-13T03:10:15;18.80;59.60
32296;DHT22;18781;51.550;5.418;2023-07-13T03:12:42;18.80;59.60
32296;DHT22;18781;51.550;5.418;2023-07-13T03:15:07;18.80;59.80
32296;DHT22;18781;51.550;5.418;2023-07-13T03:17:33;18.80;59.90
32296;DHT22;18781;51.550;5.418;2023-07-13T03:19:59;18.70;60.50
32296;DHT22;18781;51.550;5.418;2023-07-13T03:22:24;18.70;60.00
32296;DHT22;18781;51.550;5.418;2023-07-13T03:24:50;18.70;60.10
32296;DHT22;18781;51.550;5.418;2023-07-13T03:27:17;18.70;60.10
32296;DHT22;18781;51.550;5.418;2023-07-13T03:29:43;18.70;60.20
32296;DHT22;18781;51.550;5.418;2023-07-13T03:32:09;18.70;60.30
32296;DHT22;18781;51.550;5.418;2023-07-13T03:34:35;18.70;60.40
32296;DHT22;18781;51.550;5.418;2023-07-13T03:37:00;18.70;60.50
32296;DHT22;18781;51.550;5.418;2023-07-13T03:39:26;18.60;60.50
32296;DHT22;18781;51.550;5.418;2023-07-13T03:41:52;18.60;60.70
32296;DHT22;18781;51.550;5.418;2023-07-13T03:44:18;18.60;60.70
32296;DHT22;18781;51.550;5.418;2023-07-13T03:46:44;18.60;60.80
32296;DHT22;18781;51.550;5.418;2023-07-13T03:49:10;18.60;60.80
32296;DHT22;18781;51.550;5.418;2023-07-13T03:51:36;18.60;61.00
32296;DHT22;18781;51.550;5.418;2023-07-13T03:54:02;18.60;61.10
32296;DHT22;18781;51.550;5.418;2023-07-13T03:56:28;18.60;61.20
32296;DHT22;18781;51.550;5.418;2023-07-13T03:58:55;18.60;61.20
32296;DHT22;18781;51.550;5.418;2023-07-13T04:01:23;18.60;61.30
32296;DHT22;18781;51.550;5.418;2023-07-13T04:03:50;18.50;61.40
32296;DHT22;18781;51.550;5.418;2023-07-13T04:06:23;18.60;61.40
32296;DHT22;18781;51.550;5.418;2023-07-13T04:08:52;18.50;61.60
32296;DHT22;18781;51.550;5.418;2023-07-13T04:11:20;18.50;61.80
32296;DHT22;18781;51.550;5.418;2023-07-13T04:13:47;18.50;62.50
32296;DHT22;18781;51.550;5.418;2023-07-13T04:16:14;18.50;62.00
32296;DHT22;18781;51.550;5.418;2023-07-13T04:18:40;18.50;62.00
32296;DHT22;18781;51.550;5.418;2023-07-13T04:21:07;18.50;62.10
32296;DHT22;18781;51.550;5.418;2023-07-13T04:23:33;18.50;62.30
32296;DHT22;18781;51.550;5.418;2023-07-13T04:25:58;18.50;62.40
32296;DHT22;18781;51.550;5.418;2023-07-13T04:28:25;18.60;62.60
32296;DHT22;18781;51.550;5.418;2023-07-13T04:30:51;18.60;62.70
32296;DHT22;18781;51.550;5.418;2023-07-13T04:33:17;18.60;62.80
32296;DHT22;18781;51.550;5.418;2023-07-13T04:35:43;18.60;62.90
32296;DHT22;18781;51.550;5.418;2023-07-13T04:38:10;18.60;63.10
32296;DHT22;18781;51.550;5.418;2023-07-13T04:40:36;18.60;63.10
32296;DHT22;18781;51.550;5.418;2023-07-13T04:43:02;18.60;63.20
32296;DHT22;18781;51.550;5.418;2023-07-13T04:45:28;18.60;63.40
32296;DHT22;18781;51.550;5.418;2023-07-13T04:47:54;18.60;63.60
32296;DHT22;18781;51.550;5.418;2023-07-13T04:50:19;18.60;63.70
32296;DHT22;18781;51.550;5.418;2023-07-13T04:52:49;18.70;63.80
32296;DHT22;18781;51.550;5.418;2023-07-13T04:55:15;18.70;63.90
32296;DHT22;18781;51.550;5.418;2023-07-13T04:57:41;18.70;64.00
32296;DHT22;18781;51.550;5.418;2023-07-13T05:00:07;18.80;64.10
32296;DHT22;18781;51.550;5.418;2023-07-13T05:02:33;18.80;64.20
32296;DHT22;18781;51.550;5.418;2023-07-13T05:05:00;18.80;64.50
32296;DHT22;18781;51.550;5.418;2023-07-13T05:07:26;18.90;64.40
32296;DHT22;18781;51.550;5.418;2023-07-13T05:09:52;18.90;64.50
32296;DHT22;18781;51.550;5.418;2023-07-13T05:12:18;18.90;64.70
32296;DHT22;18781;51.550;5.418;2023-07-13T05:14:43;19.00;64.80
32296;DHT22;18781;51.550;5.418;2023-07-13T05:17:09;19.00;64.90
32296;DHT22;18781;51.550;5.418;2023-07-13T05:19:35;19.00;64.90
32296;DHT22;18781;51.550;5.418;2023-07-13T05:22:01;19.10;65.00
32296;DHT22;18781;51.550;5.418;2023-07-13T05:24:28;19.10;65.20
32296;DHT22;18781;51.550;5.418;2023-07-13T05:26:53;19.10;65.20
32296;DHT22;18781;51.550;5.418;2023-07-13T05:29:20;19.20;65.40
32296;DHT22;18781;51.550;5.418;2023-07-13T05:31:45;19.20;65.40
32296;DHT22;18781;51.550;5.418;2023-07-13T05:34:11;19.30;65.50
32296;DHT22;18781;51.550;5.418;2023-07-13T05:36:37;19.30;65.40
32296;DHT22;18781;51.550;5.418;2023-07-13T05:39:03;19.30;65.50
32296;DHT22;18781;51.550;5.418;2023-07-13T05:41:29;19.40;65.50
32296;DHT22;18781;51.550;5.418;2023-07-13T05:43:54;19.40;65.60
32296;DHT22;18781;51.550;5.418;2023-07-13T05:46:20;19.50;65.60
32296;DHT22;18781;51.550;5.418;2023-07-13T05:48:46;19.50;65.60
32296;DHT22;18781;51.550;5.418;2023-07-13T05:51:13;19.60;65.70
32296;DHT22;18781;51.550;5.418;2023-07-13T05:53:39;19.60;65.60
32296;DHT22;18781;51.550;5.418;2023-07-13T05:56:04;19.60;66.30
32296;DHT22;18781;51.550;5.418;2023-07-13T05:58:30;19.70;65.70
32296;DHT22;18781;51.550;5.418;2023-07-13T06:01:13;19.70;65.70
32296;DHT22;18781;51.550;5.418;2023-07-13T06:03:39;19.80;65.70
32296;DHT22;18781;51.550;5.418;2023-07-13T06:06:06;19.80;65.50
32296;DHT22;18781;51.550;5.418;2023-07-13T06:08:32;19.80;65.70
32296;DHT22;18781;51.550;5.418;2023-07-13T06:11:18;19.80;65.70
32296;DHT22;18781;51.550;5.418;2023-07-13T06:13:44;19.90;66.10
32296;DHT22;18781;51.550;5.418;2023-07-13T06:16:10;19.90;65.70
32296;DHT22;18781;51.550;5.418;2023-07-13T06:18:37;20.00;65.80
32296;DHT22;18781;51.550;5.418;2023-07-13T06:21:11;20.00;65.90
32296;DHT22;18781;51.550;5.418;2023-07-13T06:23:37;20.10;66.10
32296;DHT22;18781;51.550;5.418;2023-07-13T06:26:03;20.10;65.80
32296;DHT22;18781;51.550;5.418;2023-07-13T06:28:29;20.20;65.80
32296;DHT22;18781;51.550;5.418;2023-07-13T06:30:55;20.20;65.70
32296;DHT22;18781;51.550;5.418;2023-07-13T06:33:21;20.30;65.70
32296;DHT22;18781;51.550;5.418;2023-07-13T06:35:46;20.30;65.60
32296;DHT22;18781;51.550;5.418;2023-07-13T06:38:12;20.40;65.50
32296;DHT22;18781;51.550;5.418;2023-07-13T06:40:37;20.40;65.30
32296;DHT22;18781;51.550;5.418;2023-07-13T06:43:03;20.40;65.20
32296;DHT22;18781;51.550;5.418;2023-07-13T06:45:29;20.50;65.20
32296;DHT22;18781;51.550;5.418;2023-07-13T06:47:54;20.50;65.10
32296;DHT22;18781;51.550;5.418;2023-07-13T06:50:20;20.50;65.20
32296;DHT22;18781;51.550;5.418;2023-07-13T06:52:46;20.50;65.20
32296;DHT22;18781;51.550;5.418;2023-07-13T06:55:11;20.50;65.20
32296;DHT22;18781;51.550;5.418;2023-07-13T06:57:37;20.60;65.30
32296;DHT22;18781;51.550;5.418;2023-07-13T07:00:03;20.60;65.20
32296;DHT22;18781;51.550;5.418;2023-07-13T07:02:30;20.60;65.10
32296;DHT22;18781;51.550;5.418;2023-07-13T07:04:56;20.70;65.10
32296;DHT22;18781;51.550;5.418;2023-07-13T07:07:24;20.70;65.10
32296;DHT22;18781;51.550;5.418;2023-07-13T07:09:50;20.80;65.30
32296;DHT22;18781;51.550;5.418;2023-07-13T07:12:15;20.80;65.20
32296;DHT22;18781;51.550;5.418;2023-07-13T07:14:41;20.80;65.10
32296;DHT22;18781;51.550;5.418;2023-07-13T07:17:07;20.80;65.00
32296;DHT22;18781;51.550;5.418;2023-07-13T07:19:32;20.90;65.10
32296;DHT22;18781;51.550;5.418;2023-07-13T07:21:59;20.90;64.90
32296;DHT22;18781;51.550;5.418;2023-07-13T07:24:25;20.90;64.90
32296;DHT22;18781;51.550;5.418;2023-07-13T07:26:51;21.00;64.80
32296;DHT22;18781;51.550;5.418;2023-07-13T07:29:16;21.00;64.80
32296;DHT22;18781;51.550;5.418;2023-07-13T07:31:42;21.10;64.90
32296;DHT22;18781;51.550;5.418;2023-07-13T07:34:08;21.10;64.80
32296;DHT22;18781;51.550;5.418;2023-07-13T07:36:34;21.10;64.60
32296;DHT22;18781;51.550;5.418;2023-07-13T07:38:59;21.20;64.60
32296;DHT22;18781;51.550;5.418;2023-07-13T07:41:25;21.20;64.30
32296;DHT22;18781;51.550;5.418;2023-07-13T07:43:51;21.30;64.30
32296;DHT22;18781;51.550;5.418;2023-07-13T07:46:16;21.30;64.40
32296;DHT22;18781;51.550;5.418;2023-07-13T07:48:42;21.30;64.20
32296;DHT22;18781;51.550;5.418;2023-07-13T07:51:07;21.40;64.40
32296;DHT22;18781;51.550;5.418;2023-07-13T07:53:33;21.40;64.50
32296;DHT22;18781;51.550;5.418;2023-07-13T07:55:59;21.50;64.50
32296;DHT22;18781;51.550;5.418;2023-07-13T07:58:24;21.50;64.10
32296;DHT22;18781;51.550;5.418;2023-07-13T08:00:50;21.60;64.00
32296;DHT22;18781;51.550;5.418;2023-07-13T08:03:16;21.60;63.40
32296;DHT22;18781;51.550;5.418;2023-07-13T08:05:42;21.70;63.40
32296;DHT22;18781;51.550;5.418;2023-07-13T08:08:07;21.70;63.20
32296;DHT22;18781;51.550;5.418;2023-07-13T08:10:35;21.80;63.10
32296;DHT22;18781;51.550;5.418;2023-07-13T08:13:01;21.80;62.80
32296;DHT22;18781;51.550;5.418;2023-07-13T08:15:28;21.90;63.00
32296;DHT22;18781;51.550;5.418;2023-07-13T08:17:53;21.90;63.40
32296;DHT22;18781;51.550;5.418;2023-07-13T08:20:19;22.00;62.80
32296;DHT22;18781;51.550;5.418;2023-07-13T08:22:44;22.00;62.90
32296;DHT22;18781;51.550;5.418;2023-07-13T08:25:10;22.10;63.00
32296;DHT22;18781;51.550;5.418;2023-07-13T08:27:36;22.10;63.00
32296;DHT22;18781;51.550;5.418;2023-07-13T08:30:01;22.20;62.90
32296;DHT22;18781;51.550;5.418;2023-07-13T08:32:27;22.20;62.70
32296;DHT22;18781;51.550;5.418;2023-07-13T08:34:53;22.30;63.00
32296;DHT22;18781;51.550;5.418;2023-07-13T08:37:19;22.40;62.00
32296;DHT22;18781;51.550;5.418;2023-07-13T08:39:45;22.40;61.40
32296;DHT22;18781;51.550;5.418;2023-07-13T08:42:33;22.50;61.20
32296;DHT22;18781;51.550;5.418;2023-07-13T08:48:09;22.60;60.80
32296;DHT22;18781;51.550;5.418;2023-07-13T08:50:49;22.70;60.40
32296;DHT22;18781;51.550;5.418;2023-07-13T08:53:17;22.80;60.30
32296;DHT22;18781;51.550;5.418;2023-07-13T08:55:43;22.90;60.40
32296;DHT22;18781;51.550;5.418;2023-07-13T08:58:12;22.90;60.00
32296;DHT22;18781;51.550;5.418;2023-07-13T09:03:22;23.10;59.70
32296;DHT22;18781;51.550;5.418;2023-07-13T09:05:52;23.10;59.30
32296;DHT22;18781;51.550;5.418;2023-07-13T09:08:38;23.10;59.10
32296;DHT22;18781;51.550;5.418;2023-07-13T09:16:46;23.30;59.30
32296;DHT22;18781;51.550;5.418;2023-07-13T09:19:20;23.40;59.40
32296;DHT22;18781;51.550;5.418;2023-07-13T09:21:47;23.40;58.90
32296;DHT22;18781;51.550;5.418;2023-07-13T09:24:28;23.50;58.30
32296;DHT22;18781;51.550;5.418;2023-07-13T09:26:56;23.60;58.50
32296;DHT22;18781;51.550;5.418;2023-07-13T09:29:32;23.80;58.40
32296;DHT22;18781;51.550;5.418;2023-07-13T09:32:02;23.90;57.90
32296;DHT22;18781;51.550;5.418;2023-07-13T09:34:29;24.00;56.70
32296;DHT22;18781;51.550;5.418;2023-07-13T09:36:56;24.00;56.80
32296;DHT22;18781;51.550;5.418;2023-07-13T09:39:31;24.10;57.10
32296;DHT22;18781;51.550;5.418;2023-07-13T09:42:19;24.20;56.30
32296;DHT22;18781;51.550;5.418;2023-07-13T09:44:57;24.20;56.50
32296;DHT22;18781;51.550;5.418;2023-07-13T09:47:29;24.30;56.10
32296;DHT22;18781;51.550;5.418;2023-07-13T09:50:09;24.40;55.80
32296;DHT22;18781;51.550;5.418;2023-07-13T09:52:45;24.40;56.10
32296;DHT22;18781;51.550;5.418;2023-07-13T09:55:32;24.40;55.20
32296;DHT22;18781;51.550;5.418;2023-07-13T09:58:26;24.50;55.60
32296;DHT22;18781;51.550;5.418;2023-07-13T10:01:01;24.60;55.00
32296;DHT22;18781;51.550;5.418;2023-07-13T10:03:35;24.60;54.80
32296;DHT22;18781;51.550;5.418;2023-07-13T10:06:17;24.60;55.20
32296;DHT22;18781;51.550;5.418;2023-07-13T10:08:45;24.70;54.60
32296;DHT22;18781;51.550;5.418;2023-07-13T10:11:36;24.80;55.30
32296;DHT22;18781;51.550;5.418;2023-07-13T10:14:16;24.80;54.00
32296;DHT22;18781;51.550;5.418;2023-07-13T10:16:45;24.90;54.00
32296;DHT22;18781;51.550;5.418;2023-07-13T10:19:29;25.00;53.70
32296;DHT22;18781;51.550;5.418;2023-07-13T10:22:02;25.00;53.70
32296;DHT22;18781;51.550;5.418;2023-07-13T10:24:37;25.10;53.30
32296;DHT22;18781;51.550;5.418;2023-07-13T10:27:10;25.10;53.00
32296;DHT22;18781;51.550;5.418;2023-07-13T10:29:42;25.20;52.30
32296;DHT22;18781;51.550;5.418;2023-07-13T10:32:11;25.30;52.30
32296;DHT22;18781;51.550;5.418;2023-07-13T10:34:37;25.30;52.00
32296;DHT22;18781;51.550;5.418;2023-07-13T10:37:05;25.30;52.20
32296;DHT22;18781;51.550;5.418;2023-07-13T10:39:33;25.30;52.10
32296;DHT22;18781;51.550;5.418;2023-07-13T10:42:03;25.30;51.70
32296;DHT22;18781;51.550;5.418;2023-07-13T10:44:32;25.30;51.90
32296;DHT22;18781;51.550;5.418;2023-07-13T10:47:04;25.30;52.30
32296;DHT22;18781;51.550;5.418;2023-07-13T10:49:32;25.20;53.50
32296;DHT22;18781;51.550;5.418;2023-07-13T10:51:58;25.20;54.00
32296;DHT22;18781;51.550;5.418;2023-07-13T10:54:33;25.10;54.60
32296;DHT22;18781;51.550;5.418;2023-07-13T10:57:20;25.00;55.00
32296;DHT22;18781;51.550;5.418;2023-07-13T11:00:16;25.00;56.20
32296;DHT22;18781;51.550;5.418;2023-07-13T11:02:43;24.90;56.90
32296;DHT22;18781;51.550;5.418;2023-07-13T11:08:02;24.80;57.00
32296;DHT22;18781;51.550;5.418;2023-07-13T11:13:37;24.80;58.10
32296;DHT22;18781;51.550;5.418;2023-07-13T11:16:14;24.80;58.40
32296;DHT22;18781;51.550;5.418;2023-07-13T11:21:31;24.90;58.50
32296;DHT22;18781;51.550;5.418;2023-07-13T11:29:36;25.00;58.20
32296;DHT22;18781;51.550;5.418;2023-07-13T11:32:24;25.10;57.80
32296;DHT22;18781;51.550;5.418;2023-07-13T11:34:53;25.10;57.40
32296;DHT22;18781;51.550;5.418;2023-07-13T11:37:19;25.20;57.10
32296;DHT22;18781;51.550;5.418;2023-07-13T11:39:47;25.20;57.50
32296;DHT22;18781;51.550;5.418;2023-07-13T11:42:16;25.20;56.10
32296;DHT22;18781;51.550;5.418;2023-07-13T11:44:47;25.20;56.60
32296;DHT22;18781;51.550;5.418;2023-07-13T11:47:22;25.20;56.10
32296;DHT22;18781;51.550;5.418;2023-07-13T11:49:50;25.20;55.60
32296;DHT22;18781;51.550;5.418;2023-07-13T11:52:20;25.20;55.00
32296;DHT22;18781;51.550;5.418;2023-07-13T11:54:52;25.20;54.50
32296;DHT22;18781;51.550;5.418;2023-07-13T11:57:34;25.10;54.00
32296;DHT22;18781;51.550;5.418;2023-07-13T12:00:11;25.00;54.50
32296;DHT22;18781;51.550;5.418;2023-07-13T12:02:43;24.90;54.70
32296;DHT22;18781;51.550;5.418;2023-07-13T12:05:12;24.80;54.60
32296;DHT22;18781;51.550;5.418;2023-07-13T12:07:38;24.80;54.90
32296;DHT22;18781;51.550;5.418;2023-07-13T12:10:27;24.80;55.40
32296;DHT22;18781;51.550;5.418;2023-07-13T12:13:02;24.70;54.90
32296;DHT22;18781;51.550;5.418;2023-07-13T12:15:43;24.70;54.80
32296;DHT22;18781;51.550;5.418;2023-07-13T12:18:18;24.70;55.20
32296;DHT22;18781;51.550;5.418;2023-07-13T12:20:45;24.70;55.10
32296;DHT22;18781;51.550;5.418;2023-07-13T12:25:46;24.70;55.60
32296;DHT22;18781;51.550;5.418;2023-07-13T12:28:46;24.80;56.00
32296;DHT22;18781;51.550;5.418;2023-07-13T12:31:42;24.90;56.00
32296;DHT22;18781;51.550;5.418;2023-07-13T12:34:16;25.00;55.50
32296;DHT22;18781;51.550;5.418;2023-07-13T12:36:56;25.10;53.90
32296;DHT22;18781;51.550;5.418;2023-07-13T12:39:35;25.10;53.30
32296;DHT22;18781;51.550;5.418;2023-07-13T12:44:46;25.30;53.00
32296;DHT22;18781;51.550;5.418;2023-07-13T12:47:14;25.30;52.60
32296;DHT22;18781;51.550;5.418;2023-07-13T12:49:46;25.40;52.20
32296;DHT22;18781;51.550;5.418;2023-07-13T12:52:15;25.40;52.00
32296;DHT22;18781;51.550;5.418;2023-07-13T12:54:42;25.40;51.60
32296;DHT22;18781;51.550;5.418;2023-07-13T12:57:17;25.50;52.20
32296;DHT22;18781;51.550;5.418;2023-07-13T12:59:43;25.50;52.70
32296;DHT22;18781;51.550;5.418;2023-07-13T13:02:35;25.50;51.40
32296;DHT22;18781;51.550;5.418;2023-07-13T13:05:02;25.60;52.00
32296;DHT22;18781;51.550;5.418;2023-07-13T13:07:29;25.50;50.90
32296;DHT22;18781;51.550;5.418;2023-07-13T13:09:55;25.50;50.70
32296;DHT22;18781;51.550;5.418;2023-07-13T13:12:22;25.50;50.50
32296;DHT22;18781;51.550;5.418;2023-07-13T13:14:51;25.50;49.50
32296;DHT22;18781;51.550;5.418;2023-07-13T13:17:21;25.50;49.60
32296;DHT22;18781;51.550;5.418;2023-07-13T13:19:50;25.40;49.60
32296;DHT22;18781;51.550;5.418;2023-07-13T13:22:18;25.40;49.50
32296;DHT22;18781;51.550;5.418;2023-07-13T13:24:44;25.40;49.60
32296;DHT22;18781;51.550;5.418;2023-07-13T13:27:30;25.40;50.10
32296;DHT22;18781;51.550;5.418;2023-07-13T13:29:57;25.40;50.50
32296;DHT22;18781;51.550;5.418;2023-07-13T13:32:23;25.40;50.50
32296;DHT22;18781;51.550;5.418;2023-07-13T13:34:48;25.40;50.20
32296;DHT22;18781;51.550;5.418;2023-07-13T13:37:21;25.40;50.70
32296;DHT22;18781;51.550;5.418;2023-07-13T13:39:48;25.50;50.40
32296;DHT22;18781;51.550;5.418;2023-07-13T13:42:14;25.50;50.50
32296;DHT22;18781;51.550;5.418;2023-07-13T13:44:40;25.50;50.40
32296;DHT22;18781;51.550;5.418;2023-07-13T13:50:20;25.40;50.10
32296;DHT22;18781;51.550;5.418;2023-07-13T13:52:47;25.40;49.90
32296;DHT22;18781;51.550;5.418;2023-07-13T13:55:14;25.40;50.10
32296;DHT22;18781;51.550;5.418;2023-07-13T13:57:40;25.30;50.00
32296;DHT22;18781;51.550;5.418;2023-07-13T14:00:07;25.30;50.10
32296;DHT22;18781;51.550;5.418;2023-07-13T14:02:33;25.30;50.50
32296;DHT22;18781;51.550;5.418;2023-07-13T14:05:03;25.20;50.40
32296;DHT22;18781;51.550;5.418;2023-07-13T14:07:28;25.20;50.60
32296;DHT22;18781;51.550;5.418;2023-07-13T14:09:58;25.20;49.90
32296;DHT22;18781;51.550;5.418;2023-07-13T14:12:27;25.20;49.80
32296;DHT22;18781;51.550;5.418;2023-07-13T14:14:55;25.20;49.80
32296;DHT22;18781;51.550;5.418;2023-07-13T14:17:25;25.30;50.30
32296;DHT22;18781;51.550;5.418;2023-07-13T14:19:52;25.30;50.30
32296;DHT22;18781;51.550;5.418;2023-07-13T14:22:24;25.30;50.60
32296;DHT22;18781;51.550;5.418;2023-07-13T14:24:54;25.30;50.70
32296;DHT22;18781;51.550;5.418;2023-07-13T14:27:21;25.30;50.40
32296;DHT22;18781;51.550;5.418;2023-07-13T14:29:47;25.30;50.40
32296;DHT22;18781;51.550;5.418;2023-07-13T14:32:13;25.40;50.80
32296;DHT22;18781;51.550;5.418;2023-07-13T14:34:39;25.40;50.50
32296;DHT22;18781;51.550;5.418;2023-07-13T14:37:05;25.40;50.70
32296;DHT22;18781;51.550;5.418;2023-07-13T14:39:37;25.50;50.40
32296;DHT22;18781;51.550;5.418;2023-07-13T14:42:03;25.50;50.00
32296;DHT22;18781;51.550;5.418;2023-07-13T14:44:30;25.60;49.90
32296;DHT22;18781;51.550;5.418;2023-07-13T14:47:02;25.60;49.90
32296;DHT22;18781;51.550;5.418;2023-07-13T14:49:36;25.70;49.70
32296;DHT22;18781;51.550;5.418;2023-07-13T14:52:17;25.70;49.60
32296;DHT22;18781;51.550;5.418;2023-07-13T14:54:43;25.70;50.00
32296;DHT22;18781;51.550;5.418;2023-07-13T14:57:18;25.70;50.10
32296;DHT22;18781;51.550;5.418;2023-07-13T14:59:44;25.70;50.00
32296;DHT22;18781;51.550;5.418;2023-07-13T15:02:30;25.70;49.90
32296;DHT22;18781;51.550;5.418;2023-07-13T15:04:57;25.70;50.20
32296;DHT22;18781;51.550;5.418;2023-07-13T15:07:23;25.70;50.30
32296;DHT22;18781;51.550;5.418;2023-07-13T15:09:49;25.70;50.30
32296;DHT22;18781;51.550;5.418;2023-07-13T15:12:16;25.70;50.20
32296;DHT22;18781;51.550;5.418;2023-07-13T15:14:42;25.70;50.40
32296;DHT22;18781;51.550;5.418;2023-07-13T15:19:51;25.60;50.80
32296;DHT22;18781;51.550;5.418;2023-07-13T15:22:17;25.70;50.40
32296;DHT22;18781;51.550;5.418;2023-07-13T15:24:42;25.60;50.60
32296;DHT22;18781;51.550;5.418;2023-07-13T15:27:11;25.60;51.00
32296;DHT22;18781;51.550;5.418;2023-07-13T15:29:37;25.60;51.20
32296;DHT22;18781;51.550;5.418;2023-07-13T15:32:04;25.60;51.50
32296;DHT22;18781;51.550;5.418;2023-07-13T15:34:30;25.60;51.40
32296;DHT22;18781;51.550;5.418;2023-07-13T15:36:56;25.60;51.30
32296;DHT22;18781;51.550;5.418;2023-07-13T15:39:22;25.70;51.60
32296;DHT22;18781;51.550;5.418;2023-07-13T15:41:47;25.70;51.40
32296;DHT22;18781;51.550;5.418;2023-07-13T15:44:28;25.70;51.70
32296;DHT22;18781;51.550;5.418;2023-07-13T15:46:55;25.70;52.00
32296;DHT22;18781;51.550;5.418;2023-07-13T15:49:21;25.70;51.80
32296;DHT22;18781;51.550;5.418;2023-07-13T15:51:47;25.70;51.10
32296;DHT22;18781;51.550;5.418;2023-07-13T15:54:15;25.80;51.40
32296;DHT22;18781;51.550;5.418;2023-07-13T15:56:41;25.80;51.10
32296;DHT22;18781;51.550;5.418;2023-07-13T15:59:11;25.80;51.40
32296;DHT22;18781;51.550;5.418;2023-07-13T16:01:40;25.90;51.60
32296;DHT22;18781;51.550;5.418;2023-07-13T16:04:07;25.90;51.70
32296;DHT22;18781;51.550;5.418;2023-07-13T16:06:35;25.90;51.20
32296;DHT22;18781;51.550;5.418;2023-07-13T16:09:03;25.90;51.00
32296;DHT22;18781;51.550;5.418;2023-07-13T16:11:36;26.00;50.80
32296;DHT22;18781;51.550;5.418;2023-07-13T16:14:03;26.00;51.00
32296;DHT22;18781;51.550;5.418;2023-07-13T16:16:31;26.00;50.30
32296;DHT22;18781;51.550;5.418;2023-07-13T16:18:58;26.00;50.20